createdAt,value
2018-09-03T00:02:49.263Z,4.60
2018-09-03T00:08:53.995Z,10.80
2018-09-03T00:14:58.716Z,6.20
2018-09-03T00:21:03.734Z,6.10
2018-09-03T00:27:08.986Z,10.27
2018-09-03T00:33:19.696Z,6.27
2018-09-03T00:39:29.620Z,7.33
2018-09-03T00:45:39.710Z,6.87
2018-09-03T00:51:44.543Z,5.50
2018-09-03T00:57:49.285Z,5.33
2018-09-03T01:03:54.098Z,5.70
2018-09-03T01:09:58.990Z,6.10
2018-09-03T01:16:03.918Z,8.90
2018-09-03T01:22:08.852Z,6.60
2018-09-03T01:28:14.495Z,6.40
2018-09-03T01:34:19.395Z,10.33
2018-09-03T01:40:24.148Z,5.53
2018-09-03T01:46:29.061Z,4.23
2018-09-03T01:52:34.038Z,5.80
2018-09-03T01:58:39.079Z,4.80
2018-09-03T02:04:44.419Z,6.30
2018-09-03T02:10:49.417Z,7.23
2018-09-03T02:16:54.144Z,6.10
2018-09-03T02:22:58.960Z,6.33
2018-09-03T02:29:03.720Z,10.53
2018-09-03T02:35:08.807Z,6.37
2018-09-03T02:41:14.421Z,9.63
2018-09-03T02:47:19.182Z,5.63
2018-09-03T02:53:24.009Z,5.60
2018-09-03T02:59:28.891Z,5.77
2018-09-03T03:05:33.804Z,7.17
2018-09-03T03:11:40.192Z,6.37
2018-09-03T03:17:45.690Z,5.20
2018-09-03T03:23:50.833Z,5.13
2018-09-03T03:29:55.690Z,6.37
2018-09-03T03:36:00.592Z,9.17
2018-09-03T03:42:05.347Z,11.70
2018-09-03T03:48:10.638Z,6.10
2018-09-03T03:54:16.148Z,7.60
2018-09-03T04:00:21.042Z,5.20
2018-09-03T04:06:26.018Z,7.90
2018-09-03T04:12:30.836Z,7.20
2018-09-03T04:18:35.775Z,6.03
2018-09-03T04:24:40.911Z,6.77
2018-09-03T04:30:45.863Z,5.03
2018-09-03T04:36:50.911Z,6.67
2018-09-03T04:42:55.810Z,10.70
2018-09-03T04:49:00.773Z,6.73
2018-09-03T04:55:05.582Z,7.70
2018-09-03T05:01:10.607Z,7.53
2018-09-03T05:07:15.609Z,8.83
2018-09-03T05:13:20.531Z,11.23
2018-09-03T05:19:25.315Z,9.10
2018-09-03T05:25:30.558Z,7.63
2018-09-03T05:31:35.391Z,6.70
2018-09-03T05:37:40.878Z,9.40
2018-09-03T05:43:46.470Z,6.17
2018-09-03T05:49:51.305Z,8.33
2018-09-03T05:55:56.313Z,6.40
2018-09-03T06:02:01.090Z,7.10
2018-09-03T06:08:06.466Z,6.37
2018-09-03T06:14:12.126Z,8.07
2018-09-03T06:20:17.082Z,6.83
2018-09-03T06:26:21.765Z,6.50
2018-09-03T06:32:26.496Z,8.50
2018-09-03T06:38:31.599Z,9.93
2018-09-03T06:44:36.626Z,7.33
2018-09-03T06:50:43.225Z,8.50
2018-09-03T06:56:48.051Z,10.80
2018-09-03T07:02:53.026Z,10.20
2018-09-03T07:08:57.799Z,8.80
2018-09-03T07:15:03.145Z,11.60
2018-09-03T07:21:08.096Z,15.03
2018-09-03T07:27:13.384Z,12.10
2018-09-03T07:33:18.628Z,11.50
2018-09-03T07:39:23.378Z,11.87
2018-09-03T07:45:28.774Z,19.30
2018-09-03T07:51:34.283Z,12.23
2018-09-03T07:57:39.773Z,13.70
2018-09-03T08:03:44.961Z,13.53
2018-09-03T08:09:49.702Z,14.20
2018-09-03T08:15:54.636Z,15.37
2018-09-03T08:21:59.523Z,13.30
2018-09-03T08:28:04.336Z,17.43
2018-09-03T08:34:10.022Z,14.77
2018-09-03T08:40:15.384Z,18.07
2018-09-03T08:46:20.299Z,19.17
2018-09-03T08:52:25.112Z,19.87
2018-09-03T08:58:30.386Z,21.90
2018-09-03T09:04:35.217Z,19.67
2018-09-03T09:10:40.990Z,18.83
2018-09-03T09:16:46.487Z,19.73
2018-09-03T09:22:51.216Z,19.97
2018-09-03T09:28:55.979Z,18.00
2018-09-03T09:35:01.426Z,14.90
2018-09-03T09:41:07.292Z,16.50
2018-09-03T09:47:13.842Z,15.97
2018-09-03T09:53:18.620Z,19.40
2018-09-03T09:59:23.587Z,19.43
2018-09-03T10:05:28.665Z,19.07
2018-09-03T10:11:33.690Z,20.80
2018-09-03T10:17:38.479Z,18.13
2018-09-03T10:23:43.402Z,20.50
2018-09-03T10:29:48.237Z,18.17
2018-09-03T10:35:53.132Z,21.10
2018-09-03T10:41:58.208Z,23.40
2018-09-03T10:48:03.571Z,22.10
2018-09-03T10:54:08.930Z,27.00
2018-09-03T11:00:15.551Z,23.70
2018-09-03T11:06:20.324Z,23.80
2018-09-03T11:12:25.819Z,22.40
2018-09-03T11:18:31.821Z,24.90
2018-09-03T11:24:37.396Z,22.20
2018-09-03T11:30:43.777Z,25.27
2018-09-03T11:36:48.821Z,27.33
2018-09-03T11:42:53.764Z,23.60
2018-09-03T11:48:58.912Z,19.80
2018-09-03T11:55:03.913Z,24.40
2018-09-03T12:01:09.331Z,23.90
2018-09-03T12:07:14.574Z,23.57
2018-09-03T12:13:19.516Z,23.10
2018-09-03T12:19:24.268Z,24.23
2018-09-03T12:25:28.960Z,23.97
2018-09-03T12:31:33.765Z,22.60
2018-09-03T12:37:38.903Z,25.50
2018-09-03T12:43:44.676Z,26.07
2018-09-03T12:49:50.083Z,23.97
2018-09-03T12:55:54.879Z,23.57
2018-09-03T13:01:59.609Z,33.57
2018-09-03T13:08:04.366Z,27.83
2018-09-03T13:14:09.487Z,27.50
2018-09-03T13:20:15.173Z,25.60
2018-09-03T13:26:19.868Z,25.03
2018-09-03T13:32:24.800Z,27.90
2018-09-03T13:38:29.728Z,25.70
2018-09-03T13:44:34.511Z,24.27
2018-09-03T13:50:40.287Z,25.67
2018-09-03T13:56:45.351Z,27.13
2018-09-03T14:02:50.473Z,20.80
2018-09-03T14:08:55.619Z,28.03
2018-09-03T14:15:00.790Z,26.43
2018-09-03T14:21:06.110Z,25.07
2018-09-03T14:27:11.225Z,29.30
2018-09-03T14:33:16.696Z,25.63
2018-09-03T14:39:21.761Z,24.13
2018-09-03T14:45:26.621Z,26.80
2018-09-03T14:51:31.610Z,24.20
2018-09-03T14:57:36.356Z,26.77
2018-09-03T15:03:41.354Z,22.07
2018-09-03T15:09:47.285Z,23.50
2018-09-03T15:15:52.355Z,27.93
2018-09-03T15:21:57.000Z,25.60
2018-09-03T15:28:01.726Z,28.10
2018-09-03T15:34:06.773Z,26.37
2018-09-03T15:40:12.822Z,30.77
2018-09-03T15:46:17.813Z,29.47
2018-09-03T15:52:22.835Z,28.73
2018-09-03T15:58:27.698Z,31.13
2018-09-03T16:04:32.405Z,34.60
2018-09-03T16:17:46.047Z,40.97
2018-09-03T16:23:51.020Z,34.40
2018-09-03T16:29:55.835Z,33.97
2018-09-03T16:36:01.257Z,31.57
2018-09-03T16:42:06.323Z,32.87
2018-09-03T16:48:11.956Z,30.10
2018-09-03T16:54:16.895Z,33.80
2018-09-03T17:00:21.684Z,36.80
2018-09-03T17:06:26.381Z,32.13
2018-09-03T17:12:31.713Z,35.33
2018-09-03T17:18:37.052Z,30.50
2018-09-03T17:24:43.889Z,29.63
2018-09-03T17:30:48.869Z,28.57
2018-09-03T17:36:53.865Z,33.47
2018-09-03T17:42:59.060Z,35.70
2018-09-03T17:49:03.950Z,35.40
2018-09-03T17:55:10.146Z,30.53
2018-09-03T18:01:15.072Z,30.83
2018-09-03T18:07:19.860Z,31.70
2018-09-03T18:13:24.672Z,32.87
2018-09-03T18:19:29.393Z,31.20
2018-09-03T18:25:34.362Z,35.77
2018-09-03T18:31:39.084Z,36.63
2018-09-03T18:37:44.178Z,34.13
2018-09-03T18:43:49.892Z,42.97
2018-09-03T18:49:54.686Z,34.03
2018-09-03T18:55:59.656Z,46.40
2018-09-03T19:02:04.878Z,42.53
2018-09-03T19:08:11.144Z,39.30
2018-09-03T19:14:16.228Z,44.77
2018-09-03T19:20:21.120Z,41.60
2018-09-03T19:26:25.929Z,46.00
2018-09-03T19:32:30.721Z,46.67
2018-09-03T19:38:35.730Z,40.00
2018-09-03T19:44:41.537Z,41.40
2018-09-03T19:50:46.631Z,47.73
2018-09-03T19:56:51.679Z,36.43
2018-09-03T20:02:56.506Z,44.27
2018-09-03T20:09:01.365Z,39.43
2018-09-03T20:15:08.532Z,38.23
2018-09-03T20:21:14.161Z,39.73
2018-09-03T20:27:18.966Z,40.83
2018-09-03T20:33:24.009Z,42.57
2018-09-03T20:39:28.873Z,41.30
2018-09-03T20:45:33.696Z,49.13
2018-09-03T20:51:38.937Z,38.87
2018-09-03T20:57:43.818Z,43.77
2018-09-03T21:03:49.034Z,36.87
2018-09-03T21:09:53.813Z,39.50
2018-09-03T21:15:58.649Z,34.60
2018-09-03T21:22:03.514Z,37.47
2018-09-03T21:28:08.734Z,41.43
2018-09-03T21:34:14.617Z,45.60
2018-09-03T21:40:19.589Z,49.47
2018-09-03T21:46:24.381Z,44.40
2018-09-03T21:52:29.393Z,42.50
2018-09-03T21:58:34.237Z,47.33
2018-09-03T22:04:42.154Z,38.50
2018-09-03T22:10:47.122Z,39.57
2018-09-03T22:16:51.847Z,38.97
2018-09-03T22:22:56.703Z,43.30
2018-09-03T22:29:01.481Z,41.20
2018-09-03T22:35:06.403Z,52.33
2018-09-03T22:41:11.482Z,49.30
2018-09-03T22:47:16.485Z,43.47
2018-09-03T22:53:21.176Z,50.30
2018-09-03T22:59:25.940Z,44.57
2018-09-03T23:05:30.787Z,48.10
2018-09-03T23:11:35.818Z,52.50
2018-09-03T23:17:40.719Z,61.20
2018-09-03T23:23:45.817Z,52.60
2018-09-03T23:29:50.659Z,53.10
2018-09-03T23:35:55.415Z,55.57
2018-09-03T23:42:00.259Z,42.33
2018-09-03T23:48:05.302Z,34.70
2018-09-03T23:54:10.376Z,42.37
